Honor, Michigan
Current Conditions -  °F | °C
As of 12:55 PM on Sunday 21 Dec 2014 (Local Time) from KFKS Reporting Station
Haze Haze  
Wind Chill: 26°   Ceiling: 1600
Heat Index: 33°   Visibility: 5mi
Dew Point: 31°   Wind: 8mph
Humidity: 92%   Direction: 170°S
Pressure: 30.14"   Gusts: NA
Location:  44.66°N, 86.02°W
Report Text: KFKS 211755Z AUTO 17007KT 5SM BR BKN016 OVC039 01/00 A3014 RMK AO2 T00071005 10007 21009
Loading
Personal Weather Stations






























Interactive Weather Map New forecast layout! Learn more

10-Day Weather Forecast

Advertisements
Track Severe Weather on mobile